createdAt,value
2022-08-03T00:00:40.207Z,90.26
2022-08-03T00:01:44.791Z,90.25
2022-08-03T00:02:48.684Z,90.39
2022-08-03T00:03:52.818Z,91.01
2022-08-03T00:04:56.570Z,91.13
2022-08-03T00:06:04.103Z,91.33
2022-08-03T00:07:08.967Z,91.56
2022-08-03T00:08:13.819Z,91.59
2022-08-03T00:09:23.541Z,92.12
2022-08-03T00:10:27.781Z,91.99
2022-08-03T00:11:32.152Z,91.92
2022-08-03T00:12:36.670Z,92.09
2022-08-03T00:13:40.570Z,92.10
2022-08-03T00:14:44.360Z,91.67
2022-08-03T00:15:48.201Z,91.74
2022-08-03T00:16:52.042Z,91.77
2022-08-03T00:17:55.929Z,91.86
2022-08-03T00:19:00.808Z,91.57
2022-08-03T00:20:05.402Z,91.68
2022-08-03T00:21:09.875Z,91.77
2022-08-03T00:22:14.117Z,91.67
2022-08-03T00:23:18.291Z,91.67
2022-08-03T00:24:22.210Z,91.65
2022-08-03T00:25:26.029Z,91.61
2022-08-03T00:26:30.416Z,91.67
2022-08-03T00:27:34.802Z,91.55
2022-08-03T00:28:39.535Z,91.77
2022-08-03T00:29:59.642Z,91.58
2022-08-03T00:31:04.223Z,91.73
2022-08-03T00:32:08.145Z,91.85
2022-08-03T00:33:16.460Z,91.70
2022-08-03T00:34:36.301Z,92.04
2022-08-03T00:35:50.132Z,91.60
2022-08-03T00:36:55.001Z,91.76
2022-08-03T00:38:00.031Z,91.91
2022-08-03T00:39:04.384Z,91.90
2022-08-03T00:40:10.398Z,92.01
2022-08-03T00:41:15.579Z,92.14
2022-08-03T00:42:19.652Z,92.13
2022-08-03T00:43:29.301Z,92.26
2022-08-03T00:44:44.256Z,92.58
2022-08-03T00:45:48.468Z,92.41
2022-08-03T00:46:54.714Z,92.51
2022-08-03T00:47:59.387Z,92.47
2022-08-03T00:49:03.386Z,92.63
2022-08-03T00:50:07.957Z,92.50
2022-08-03T00:51:11.791Z,92.46
2022-08-03T00:52:17.491Z,92.69
2022-08-03T00:53:22.382Z,92.64
2022-08-03T00:54:27.818Z,92.56
2022-08-03T00:55:31.924Z,92.55
2022-08-03T00:56:37.836Z,92.45
2022-08-03T00:57:44.052Z,92.49
2022-08-03T00:58:48.031Z,92.51
2022-08-03T00:59:52.259Z,92.66
2022-08-03T01:00:56.089Z,92.69
2022-08-03T01:02:00.014Z,92.71
2022-08-03T01:03:04.027Z,92.77
2022-08-03T01:04:07.893Z,92.44
2022-08-03T01:05:12.329Z,92.28
2022-08-03T01:06:36.402Z,92.17
2022-08-03T01:08:16.604Z,91.75
2022-08-03T01:09:50.063Z,91.52
2022-08-03T01:11:15.971Z,91.43
2022-08-03T01:12:45.855Z,91.19
2022-08-03T01:14:19.342Z,91.06
2022-08-03T01:15:40.928Z,90.90
2022-08-03T01:17:02.340Z,90.86
2022-08-03T01:18:33.056Z,90.78
2022-08-03T01:19:51.038Z,90.59
2022-08-03T01:21:01.391Z,90.68
2022-08-03T01:22:23.706Z,90.66
2022-08-03T01:24:21.393Z,90.67
2022-08-03T01:26:22.511Z,90.20
2022-08-03T01:27:43.707Z,90.04
2022-08-03T01:29:09.206Z,90.01
2022-08-03T01:30:14.332Z,89.85
2022-08-03T01:31:27.665Z,89.97
2022-08-03T01:32:53.471Z,90.07
2022-08-03T01:34:14.759Z,89.76
2022-08-03T01:35:29.594Z,89.89
2022-08-03T01:36:43.545Z,89.94
2022-08-03T01:38:01.391Z,89.96
2022-08-03T01:39:11.717Z,89.93
2022-08-03T01:40:18.038Z,89.95
2022-08-03T01:41:37.360Z,90.23
2022-08-03T01:42:44.861Z,89.94
2022-08-03T01:44:28.448Z,89.91
2022-08-03T01:45:19.066Z,89.92
2022-08-03T01:46:26.461Z,90.10
2022-08-03T01:47:33.076Z,90.09
2022-08-03T01:48:42.307Z,90.24
2022-08-03T01:49:48.269Z,90.36
2022-08-03T01:50:56.139Z,90.25
2022-08-03T01:52:05.390Z,90.22
2022-08-03T01:53:12.156Z,90.36
2022-08-03T01:54:17.709Z,90.18
2022-08-03T01:55:25.279Z,90.18
2022-08-03T01:56:32.338Z,90.20
2022-08-03T01:58:05.634Z,90.38
2022-08-03T01:59:05.696Z,90.20
2022-08-03T02:00:10.863Z,90.33
2022-08-03T02:01:17.524Z,90.42
2022-08-03T02:02:33.044Z,90.60
2022-08-03T02:04:00.243Z,90.73
2022-08-03T02:05:10.625Z,90.70
2022-08-03T02:06:59.661Z,90.88
2022-08-03T02:07:45.429Z,91.04
2022-08-03T02:08:53.305Z,91.18
2022-08-03T02:09:59.910Z,91.46
2022-08-03T02:11:06.147Z,91.67
2022-08-03T02:12:12.597Z,91.84
2022-08-03T02:13:20.915Z,91.66
2022-08-03T02:14:27.060Z,91.64
2022-08-03T02:15:33.752Z,91.86
2022-08-03T02:16:38.949Z,91.99
2022-08-03T02:17:45.997Z,92.61
2022-08-03T02:18:50.422Z,92.40
2022-08-03T02:19:58.715Z,92.76
2022-08-03T02:21:10.815Z,93.45
2022-08-03T02:22:16.487Z,93.21
2022-08-03T02:23:21.198Z,93.25
2022-08-03T02:24:25.423Z,93.32
2022-08-03T02:25:32.265Z,93.16
2022-08-03T02:26:40.335Z,93.55
2022-08-03T02:27:55.473Z,93.56
2022-08-03T02:29:13.935Z,93.65
2022-08-03T02:30:20.506Z,93.20
2022-08-03T02:31:31.285Z,93.39
2022-08-03T02:32:43.042Z,93.41
2022-08-03T02:34:03.724Z,93.28
2022-08-03T02:35:13.790Z,92.91
2022-08-03T02:36:25.667Z,92.97
2022-08-03T02:37:35.930Z,92.82
2022-08-03T02:38:44.569Z,93.11
2022-08-03T02:39:53.541Z,93.01
2022-08-03T02:41:00.633Z,92.90
2022-08-03T02:42:09.149Z,92.98
2022-08-03T02:43:23.673Z,93.04
2022-08-03T02:44:32.789Z,93.01
2022-08-03T02:45:45.938Z,93.20
2022-08-03T02:46:57.890Z,92.92
2022-08-03T02:48:07.136Z,92.72
2022-08-03T02:49:40.830Z,92.94
2022-08-03T02:50:42.957Z,92.24
2022-08-03T02:51:52.085Z,92.56
2022-08-03T02:52:59.065Z,92.57
2022-08-03T02:54:05.489Z,92.62
2022-08-03T02:55:12.597Z,92.46
2022-08-03T02:56:19.263Z,92.28
2022-08-03T02:57:27.552Z,92.20
2022-08-03T02:58:33.866Z,92.20
2022-08-03T02:59:39.646Z,92.10
2022-08-03T03:00:46.198Z,92.16
2022-08-03T03:01:51.821Z,91.99
2022-08-03T03:03:02.954Z,92.09
2022-08-03T03:04:10.222Z,92.04
2022-08-03T03:05:54.568Z,92.14
2022-08-03T03:06:43.297Z,92.12
2022-08-03T03:07:53.145Z,92.05
2022-08-03T03:08:59.930Z,91.93
2022-08-03T03:10:05.597Z,92.02
2022-08-03T03:11:11.685Z,91.77
2022-08-03T03:12:18.496Z,91.90
2022-08-03T03:13:23.214Z,91.67
2022-08-03T03:14:33.199Z,91.90
2022-08-03T03:15:41.423Z,91.94
2022-08-03T03:16:50.698Z,91.79
2022-08-03T03:18:02.892Z,91.89
2022-08-03T03:19:09.590Z,91.82
2022-08-03T03:20:15.964Z,91.65
2022-08-03T03:21:37.377Z,91.34
2022-08-03T03:22:45.263Z,91.20
2022-08-03T03:23:50.757Z,91.16
2022-08-03T03:24:56.151Z,91.01
2022-08-03T03:26:00.969Z,90.72
2022-08-03T03:27:05.396Z,90.77
2022-08-03T03:28:11.869Z,91.21
2022-08-03T03:29:16.795Z,91.22
2022-08-03T03:30:20.794Z,90.98
2022-08-03T03:31:25.137Z,91.25
2022-08-03T03:32:30.650Z,91.35
2022-08-03T03:33:36.583Z,91.46
2022-08-03T03:34:41.403Z,91.43
2022-08-03T03:35:48.675Z,91.23
2022-08-03T03:36:52.953Z,91.22
2022-08-03T03:37:57.646Z,91.24
2022-08-03T03:39:15.142Z,91.08
2022-08-03T03:40:19.931Z,91.03
2022-08-03T03:41:24.829Z,90.89
2022-08-03T03:42:28.849Z,90.72
2022-08-03T03:43:33.626Z,90.76
2022-08-03T03:44:37.599Z,90.64
2022-08-03T03:45:44.619Z,90.69
2022-08-03T03:46:48.821Z,90.61
2022-08-03T03:47:53.369Z,91.06
2022-08-03T03:48:57.423Z,91.00
2022-08-03T03:50:04.727Z,90.87
2022-08-03T03:51:10.107Z,90.67
2022-08-03T03:52:14.154Z,90.59
2022-08-03T03:53:18.357Z,90.39
2022-08-03T03:54:22.497Z,90.33
2022-08-03T03:55:30.642Z,90.35
2022-08-03T03:56:34.556Z,90.64
2022-08-03T03:57:38.629Z,90.45
2022-08-03T03:58:42.493Z,90.52
2022-08-03T03:59:46.405Z,90.29
2022-08-03T04:00:51.175Z,90.09
2022-08-03T04:01:58.856Z,90.44
2022-08-03T04:03:03.261Z,90.40
2022-08-03T04:04:25.677Z,90.49
2022-08-03T04:05:48.165Z,90.40
2022-08-03T04:07:10.617Z,90.35
2022-08-03T04:08:38.137Z,90.39
2022-08-03T04:10:14.100Z,90.48
2022-08-03T04:11:30.271Z,90.31
2022-08-03T04:12:38.995Z,90.47
2022-08-03T04:14:11.167Z,90.62
2022-08-03T04:15:18.135Z,90.40
2022-08-03T04:16:28.206Z,90.49
2022-08-03T04:17:33.136Z,90.37
2022-08-03T04:18:41.925Z,90.43
2022-08-03T04:19:54.099Z,90.68
2022-08-03T04:21:04.896Z,90.69
2022-08-03T04:22:14.554Z,90.52
2022-08-03T04:23:24.873Z,90.56
2022-08-03T04:24:39.081Z,90.75
2022-08-03T04:25:44.710Z,90.62
2022-08-03T04:26:52.883Z,90.59
2022-08-03T04:28:08.240Z,90.55
2022-08-03T04:29:29.284Z,90.55
2022-08-03T04:30:38.230Z,90.48
2022-08-03T04:31:46.929Z,90.59
2022-08-03T04:32:52.451Z,90.64
2022-08-03T04:33:57.676Z,90.64
2022-08-03T04:35:01.798Z,90.75
2022-08-03T04:36:10.300Z,90.54
2022-08-03T04:37:30.513Z,90.57
2022-08-03T04:38:56.917Z,90.50
2022-08-03T04:40:06.247Z,90.34
2022-08-03T04:41:11.204Z,90.34
2022-08-03T04:42:19.058Z,90.20
2022-08-03T04:43:26.051Z,90.17
2022-08-03T04:44:31.956Z,90.31
2022-08-03T04:45:37.596Z,90.27
2022-08-03T04:46:50.529Z,90.33
2022-08-03T04:47:58.078Z,89.92
2022-08-03T04:49:02.967Z,89.71
2022-08-03T04:50:12.527Z,89.60
2022-08-03T04:51:18.343Z,89.30
2022-08-03T04:52:22.594Z,89.19
2022-08-03T04:53:26.605Z,88.75
2022-08-03T04:54:31.323Z,88.59
2022-08-03T04:55:36.807Z,88.35
2022-08-03T04:56:41.920Z,88.41
2022-08-03T04:57:45.888Z,88.41
2022-08-03T04:58:49.821Z,88.01
2022-08-03T05:00:01.499Z,88.00
2022-08-03T05:01:06.848Z,87.63
2022-08-03T05:02:10.670Z,87.69
2022-08-03T05:03:23.803Z,87.49
2022-08-03T05:04:28.518Z,87.29
2022-08-03T05:05:49.429Z,87.27
2022-08-03T05:06:55.860Z,87.08
2022-08-03T05:08:00.774Z,86.97
2022-08-03T05:09:07.785Z,86.90
2022-08-03T05:10:16.507Z,86.77
2022-08-03T05:11:20.760Z,86.23
2022-08-03T05:12:25.844Z,86.05
2022-08-03T05:13:31.129Z,85.49
2022-08-03T05:14:39.750Z,85.24
2022-08-03T05:15:43.671Z,84.94
2022-08-03T05:16:47.757Z,84.56
2022-08-03T05:17:51.660Z,84.39
2022-08-03T05:18:55.438Z,83.81
2022-08-03T05:19:59.525Z,83.45
2022-08-03T05:21:03.576Z,82.70
2022-08-03T05:22:07.640Z,82.26
2022-08-03T05:23:11.797Z,81.70
2022-08-03T05:24:15.776Z,81.33
2022-08-03T05:25:21.431Z,80.69
2022-08-03T05:26:28.237Z,80.40
2022-08-03T05:27:32.244Z,80.01
2022-08-03T05:28:36.139Z,79.63
2022-08-03T05:29:40.074Z,79.27
2022-08-03T05:30:44.245Z,78.91
2022-08-03T05:31:48.158Z,78.42
2022-08-03T05:32:53.650Z,78.24
2022-08-03T05:33:58.081Z,77.50
2022-08-03T05:35:57.397Z,77.00
2022-08-03T05:36:25.995Z,76.13
2022-08-03T05:37:30.094Z,75.38
2022-08-03T05:38:35.412Z,75.23
2022-08-03T05:39:39.563Z,74.50
2022-08-03T05:40:56.836Z,74.16
2022-08-03T05:42:02.904Z,73.29
2022-08-03T05:43:06.922Z,72.48
2022-08-03T05:44:11.103Z,71.89
2022-08-03T05:45:15.124Z,72.20
2022-08-03T05:46:18.931Z,71.58
2022-08-03T05:47:23.054Z,70.95
2022-08-03T05:48:27.216Z,70.32
2022-08-03T05:49:31.327Z,70.57
2022-08-03T05:50:39.897Z,70.03
2022-08-03T05:51:46.985Z,69.58
2022-08-03T05:53:03.854Z,68.67
2022-08-03T05:54:07.986Z,68.96
2022-08-03T05:55:14.114Z,68.09
2022-08-03T05:56:18.282Z,68.20
2022-08-03T05:57:22.437Z,67.64
2022-08-03T05:58:26.264Z,66.95
2022-08-03T05:59:38.492Z,66.37
2022-08-03T06:00:42.547Z,66.25
2022-08-03T06:01:46.953Z,65.79
2022-08-03T06:02:51.352Z,66.04
2022-08-03T06:03:55.245Z,66.77
2022-08-03T06:04:59.111Z,67.18
2022-08-03T06:06:02.938Z,67.52
2022-08-03T06:07:07.101Z,67.65
2022-08-03T06:08:10.971Z,68.14
2022-08-03T06:09:19.789Z,68.27
2022-08-03T06:10:35.007Z,67.96
2022-08-03T06:11:42.310Z,67.60
2022-08-03T06:12:51.208Z,66.91
2022-08-03T06:13:57.447Z,66.07
2022-08-03T06:15:01.712Z,65.50
2022-08-03T06:16:06.378Z,64.56
2022-08-03T06:17:10.796Z,63.64
2022-08-03T06:18:16.497Z,63.10
2022-08-03T06:19:20.678Z,62.64
2022-08-03T06:20:26.619Z,62.36
2022-08-03T06:21:31.327Z,61.26
2022-08-03T06:22:36.271Z,61.20
2022-08-03T06:23:55.680Z,60.40
2022-08-03T06:25:04.076Z,59.56
2022-08-03T06:26:09.160Z,58.67
2022-08-03T06:27:14.237Z,58.16
2022-08-03T06:28:51.500Z,57.52
2022-08-03T06:29:42.409Z,56.67
2022-08-03T06:30:47.058Z,56.45
2022-08-03T06:31:53.918Z,55.66
2022-08-03T06:32:57.823Z,54.95
2022-08-03T06:34:32.839Z,53.88
2022-08-03T06:35:29.573Z,53.07
2022-08-03T06:36:34.010Z,52.43
2022-08-03T06:37:46.770Z,51.63
2022-08-03T06:38:50.582Z,51.22
2022-08-03T06:39:54.885Z,50.12
2022-08-03T06:40:58.889Z,49.79
2022-08-03T06:42:02.875Z,49.26
2022-08-03T06:43:12.338Z,48.33
2022-08-03T06:44:16.724Z,47.60
2022-08-03T06:45:20.895Z,46.94
2022-08-03T06:46:26.017Z,46.29
2022-08-03T06:47:30.019Z,45.71
2022-08-03T06:48:34.942Z,45.59
2022-08-03T06:49:38.744Z,45.33
2022-08-03T06:50:44.528Z,44.80
2022-08-03T06:52:05.268Z,44.30
2022-08-03T06:53:11.384Z,44.03
2022-08-03T06:54:24.672Z,43.66
2022-08-03T06:55:28.955Z,43.28
2022-08-03T06:56:32.708Z,42.96
2022-08-03T06:57:36.539Z,42.47
2022-08-03T06:58:40.529Z,42.16
2022-08-03T07:00:09.903Z,41.84
2022-08-03T07:01:09.215Z,41.67
2022-08-03T07:02:19.050Z,42.69
2022-08-03T07:03:23.887Z,43.56
2022-08-03T07:04:27.944Z,44.79
2022-08-03T07:05:36.118Z,45.61
2022-08-03T07:06:41.147Z,45.84
2022-08-03T07:07:45.348Z,46.29
2022-08-03T07:08:52.301Z,46.91
2022-08-03T07:09:58.295Z,47.42
2022-08-03T07:11:02.914Z,47.50
2022-08-03T07:12:08.504Z,47.09
2022-08-03T07:13:13.534Z,46.72
2022-08-03T07:14:17.236Z,45.76
2022-08-03T07:15:54.600Z,45.26
2022-08-03T07:16:45.448Z,44.35
2022-08-03T07:17:49.391Z,43.81
2022-08-03T07:18:53.186Z,43.90
2022-08-03T07:19:58.106Z,43.92
2022-08-03T07:21:01.987Z,43.99
2022-08-03T07:22:05.897Z,43.83
2022-08-03T07:23:10.147Z,44.23
2022-08-03T07:24:21.813Z,44.29
2022-08-03T07:25:26.280Z,44.31
2022-08-03T07:26:30.497Z,43.92
2022-08-03T07:27:34.749Z,42.99
2022-08-03T07:28:38.509Z,41.98
2022-08-03T07:29:42.604Z,40.42
2022-08-03T07:30:46.739Z,38.64
2022-08-03T07:31:50.877Z,37.19
2022-08-03T07:32:55.041Z,35.55
2022-08-03T07:33:59.082Z,34.21
2022-08-03T07:35:16.907Z,32.91
2022-08-03T07:36:28.777Z,31.41
2022-08-03T07:37:33.925Z,30.39
2022-08-03T07:38:38.151Z,30.08
2022-08-03T07:39:42.267Z,30.13
2022-08-03T07:40:46.700Z,29.83
2022-08-03T07:41:52.067Z,30.36
2022-08-03T07:42:56.142Z,30.46
2022-08-03T07:44:00.643Z,30.42
2022-08-03T07:45:06.114Z,30.68
2022-08-03T07:46:10.100Z,30.89
2022-08-03T07:47:22.778Z,31.45
2022-08-03T07:48:27.049Z,31.70
2022-08-03T07:49:32.158Z,31.29
2022-08-03T07:50:36.257Z,29.83
2022-08-03T07:51:40.706Z,29.28
2022-08-03T07:52:51.724Z,28.55
2022-08-03T07:53:57.962Z,27.76
2022-08-03T07:55:02.128Z,26.97
2022-08-03T07:56:06.446Z,26.58
2022-08-03T07:57:15.789Z,25.74
2022-08-03T07:58:24.015Z,24.95
2022-08-03T07:59:28.831Z,24.52
2022-08-03T08:00:53.475Z,23.67
2022-08-03T08:01:57.836Z,23.13
2022-08-03T08:03:02.516Z,22.60
2022-08-03T08:04:06.514Z,22.57
2022-08-03T08:05:11.393Z,22.71
2022-08-03T08:06:16.706Z,22.18
2022-08-03T08:07:20.817Z,22.60
2022-08-03T08:08:25.096Z,22.48
2022-08-03T08:09:29.116Z,22.38
2022-08-03T08:10:33.341Z,22.93
2022-08-03T08:11:40.099Z,22.66
2022-08-03T08:12:44.549Z,22.34
2022-08-03T08:13:48.417Z,22.34
2022-08-03T08:14:52.654Z,22.50
2022-08-03T08:15:57.471Z,22.65
2022-08-03T08:17:04.455Z,22.95
2022-08-03T08:18:11.470Z,22.39
2022-08-03T08:19:16.924Z,22.29
2022-08-03T08:20:34.881Z,22.48
2022-08-03T08:21:53.633Z,22.36
2022-08-03T08:23:19.913Z,23.45
2022-08-03T08:24:34.368Z,23.71
2022-08-03T08:25:38.681Z,23.61
2022-08-03T08:26:42.679Z,23.66
2022-08-03T08:28:31.930Z,22.69
2022-08-03T08:29:13.689Z,21.80
2022-08-03T08:30:20.914Z,21.83
2022-08-03T08:31:27.677Z,21.74
2022-08-03T08:32:32.397Z,21.74
2022-08-03T08:34:01.462Z,21.14
2022-08-03T08:35:00.750Z,21.07
2022-08-03T08:36:05.183Z,20.56
2022-08-03T08:37:09.285Z,20.93
2022-08-03T08:38:13.269Z,20.46
2022-08-03T08:39:17.588Z,21.06
2022-08-03T08:40:23.850Z,21.09
2022-08-03T08:41:32.071Z,21.52
2022-08-03T08:42:40.298Z,21.59
2022-08-03T08:43:48.726Z,21.52
2022-08-03T08:44:53.163Z,21.36
2022-08-03T08:46:00.030Z,21.67
2022-08-03T08:47:05.049Z,21.16
2022-08-03T08:48:13.516Z,21.86
2022-08-03T08:49:23.819Z,21.87
2022-08-03T08:50:28.416Z,22.04
2022-08-03T08:51:59.353Z,22.70
2022-08-03T08:53:04.475Z,22.87
2022-08-03T08:54:10.097Z,22.94
2022-08-03T08:55:20.759Z,22.74
2022-08-03T08:56:27.255Z,22.57
2022-08-03T08:57:49.847Z,22.39
2022-08-03T08:58:59.385Z,22.24
2022-08-03T09:00:10.080Z,22.45
2022-08-03T09:01:14.310Z,22.04
2022-08-03T09:02:19.078Z,21.72
2022-08-03T09:03:29.742Z,21.54
2022-08-03T09:04:35.096Z,21.35
2022-08-03T09:05:55.306Z,21.52
2022-08-03T09:07:19.241Z,20.70
2022-08-03T09:08:24.629Z,21.26
2022-08-03T09:10:10.901Z,21.17
2022-08-03T09:10:53.025Z,21.58
2022-08-03T09:12:09.024Z,21.39
2022-08-03T09:13:22.363Z,22.06
2022-08-03T09:14:36.739Z,22.44
2022-08-03T09:15:42.562Z,22.49
2022-08-03T09:17:05.461Z,23.31
2022-08-03T09:18:09.992Z,24.15
2022-08-03T09:19:15.634Z,24.51
2022-08-03T09:20:22.614Z,25.32
2022-08-03T09:21:32.606Z,25.68
2022-08-03T09:22:53.112Z,26.33
2022-08-03T09:24:02.862Z,26.96
2022-08-03T09:25:24.386Z,27.28
2022-08-03T09:26:32.175Z,28.01
2022-08-03T09:27:46.941Z,28.79
2022-08-03T09:29:07.139Z,30.03
2022-08-03T09:30:34.519Z,30.81
2022-08-03T09:31:47.074Z,31.14
2022-08-03T09:32:51.437Z,31.65
2022-08-03T09:34:01.475Z,31.66
2022-08-03T09:35:06.616Z,32.25
2022-08-03T09:36:38.494Z,32.39
2022-08-03T09:38:12.027Z,32.81
2022-08-03T09:39:15.795Z,32.58
2022-08-03T09:40:36.638Z,33.54
2022-08-03T09:41:44.255Z,33.66
2022-08-03T09:42:57.863Z,33.58
2022-08-03T09:44:02.074Z,33.56
2022-08-03T09:45:07.003Z,33.46
2022-08-03T09:46:11.006Z,33.62
2022-08-03T09:47:28.360Z,33.96
2022-08-03T09:48:37.563Z,33.69
2022-08-03T09:49:56.189Z,32.68
2022-08-03T09:51:12.765Z,33.37
2022-08-03T09:52:39.438Z,34.33
2022-08-03T09:53:51.477Z,34.49
2022-08-03T09:56:32.514Z,34.16
2022-08-03T09:56:48.153Z,34.76
2022-08-03T09:57:52.989Z,34.77
2022-08-03T09:58:57.281Z,34.80
2022-08-03T10:00:12.371Z,34.34
2022-08-03T10:01:25.323Z,34.58
2022-08-03T10:02:29.585Z,34.79
2022-08-03T10:04:03.427Z,35.17
2022-08-03T10:05:01.893Z,34.93
2022-08-03T10:06:19.939Z,34.78
2022-08-03T10:07:25.430Z,34.88
2022-08-03T10:08:32.160Z,34.37
2022-08-03T10:09:39.223Z,34.70
2022-08-03T10:10:46.487Z,35.04
2022-08-03T10:11:50.670Z,34.23
2022-08-03T10:12:54.829Z,34.46
2022-08-03T10:14:01.445Z,34.28
2022-08-03T10:15:07.157Z,34.95
2022-08-03T10:16:39.925Z,35.46
2022-08-03T10:17:44.115Z,35.14
2022-08-03T10:18:48.068Z,34.48
2022-08-03T10:19:52.392Z,35.06
2022-08-03T10:21:05.602Z,35.05
2022-08-03T10:22:37.505Z,34.69
2022-08-03T10:23:42.887Z,34.63
2022-08-03T10:25:10.063Z,34.63
2022-08-03T10:26:19.403Z,34.75
2022-08-03T10:27:26.975Z,34.96
2022-08-03T10:28:50.129Z,34.77
2022-08-03T10:29:59.316Z,34.22
2022-08-03T10:31:07.987Z,34.66
2022-08-03T10:32:30.795Z,35.12
2022-08-03T10:33:51.765Z,34.53
2022-08-03T10:35:20.112Z,34.46
2022-08-03T10:36:31.037Z,34.52
2022-08-03T10:37:56.428Z,34.53
2022-08-03T10:39:03.928Z,33.57
2022-08-03T10:40:46.802Z,34.08
2022-08-03T10:41:51.100Z,34.92
2022-08-03T10:43:13.433Z,35.22
2022-08-03T10:44:24.911Z,34.08
2022-08-03T10:45:29.275Z,34.99
2022-08-03T10:46:39.289Z,35.80
2022-08-03T10:47:49.132Z,34.81
2022-08-03T10:48:54.224Z,32.93
2022-08-03T10:50:00.285Z,33.69
2022-08-03T10:51:07.055Z,33.68
2022-08-03T10:52:13.794Z,34.64
2022-08-03T10:53:38.295Z,34.27
2022-08-03T10:55:07.548Z,34.64
2022-08-03T10:56:52.232Z,34.28
2022-08-03T10:57:59.183Z,33.89
2022-08-03T10:59:03.713Z,34.52
2022-08-03T11:00:09.734Z,35.01
2022-08-03T11:01:14.627Z,34.70
2022-08-03T11:02:19.808Z,34.76
2022-08-03T11:03:24.020Z,35.71
2022-08-03T11:04:30.331Z,35.29
2022-08-03T11:05:54.644Z,35.30
2022-08-03T11:07:26.091Z,35.23
2022-08-03T11:08:37.479Z,35.36
2022-08-03T11:09:56.465Z,35.53
2022-08-03T11:11:28.798Z,35.37
2022-08-03T11:12:34.318Z,35.51
2022-08-03T11:13:38.927Z,35.37
2022-08-03T11:14:50.517Z,36.59
2022-08-03T11:16:01.690Z,36.40
2022-08-03T11:17:14.440Z,36.15
2022-08-03T11:18:19.215Z,36.46
2022-08-03T11:19:28.245Z,36.60
2022-08-03T11:20:51.374Z,36.24
2022-08-03T11:21:58.059Z,36.05
2022-08-03T11:23:03.236Z,35.60
2022-08-03T11:24:07.546Z,35.81
2022-08-03T11:25:53.969Z,36.36
2022-08-03T11:26:36.498Z,35.45
2022-08-03T11:27:40.568Z,35.73
2022-08-03T11:28:47.443Z,35.18
2022-08-03T11:29:58.381Z,36.00
2022-08-03T11:31:48.743Z,35.76
2022-08-03T11:32:49.191Z,35.55
2022-08-03T11:34:12.548Z,36.18
2022-08-03T11:35:22.949Z,35.49
2022-08-03T11:36:32.002Z,35.51
2022-08-03T11:38:03.004Z,35.18
2022-08-03T11:39:17.284Z,35.67
2022-08-03T11:40:53.024Z,36.04
2022-08-03T11:41:57.057Z,36.55
2022-08-03T11:43:01.903Z,36.49
2022-08-03T11:44:05.968Z,36.49
2022-08-03T11:45:10.184Z,36.02
2022-08-03T11:46:28.472Z,36.29
2022-08-03T11:47:50.881Z,35.83
2022-08-03T11:49:09.979Z,36.37
2022-08-03T11:50:17.390Z,36.61
2022-08-03T11:51:32.399Z,36.36
2022-08-03T11:52:40.610Z,36.43
2022-08-03T11:53:44.766Z,36.45
2022-08-03T11:54:57.023Z,36.30
2022-08-03T11:56:03.494Z,35.71
2022-08-03T11:57:09.206Z,35.95
2022-08-03T11:59:10.607Z,36.36
2022-08-03T11:59:42.676Z,35.81
2022-08-03T12:00:47.139Z,36.44
2022-08-03T12:01:51.539Z,36.92
2022-08-03T12:03:08.921Z,36.13
2022-08-03T12:04:13.056Z,36.20
2022-08-03T12:05:17.137Z,36.39
2022-08-03T12:06:21.318Z,36.18
2022-08-03T12:08:03.212Z,36.73
2022-08-03T12:08:52.078Z,36.74
2022-08-03T12:10:14.671Z,36.57
2022-08-03T12:11:18.954Z,35.91
2022-08-03T12:12:22.979Z,36.04
2022-08-03T12:14:43.924Z,35.78
2022-08-03T12:15:07.532Z,35.83
2022-08-03T12:16:19.035Z,36.02
2022-08-03T12:17:23.185Z,36.69
2022-08-03T12:18:27.487Z,36.12
2022-08-03T12:19:44.026Z,36.68
2022-08-03T12:20:51.167Z,36.82
2022-08-03T12:21:57.225Z,36.47
2022-08-03T12:23:07.598Z,36.20
2022-08-03T12:24:12.505Z,36.34
2022-08-03T12:25:39.049Z,36.19
2022-08-03T12:26:58.372Z,36.51
2022-08-03T12:28:36.037Z,35.97
2022-08-03T12:29:37.871Z,36.17
2022-08-03T12:30:42.477Z,36.39
2022-08-03T12:31:46.808Z,36.72
2022-08-03T12:32:50.939Z,36.21
2022-08-03T12:34:03.567Z,36.08
2022-08-03T12:35:08.712Z,36.02
2022-08-03T12:36:12.923Z,36.08
2022-08-03T12:37:23.977Z,35.91
2022-08-03T12:38:29.659Z,36.00
2022-08-03T12:39:34.744Z,36.19
2022-08-03T12:40:39.097Z,36.04
2022-08-03T12:41:43.401Z,35.83
2022-08-03T12:42:47.828Z,35.82
2022-08-03T12:43:52.465Z,36.29
2022-08-03T12:44:56.591Z,36.05
2022-08-03T12:46:20.134Z,36.10
2022-08-03T12:47:24.211Z,36.80
2022-08-03T12:48:29.676Z,36.90
2022-08-03T12:49:52.824Z,36.29
2022-08-03T12:51:11.057Z,36.59
2022-08-03T12:52:16.464Z,36.41
2022-08-03T12:53:30.526Z,37.02
2022-08-03T12:54:36.382Z,36.53
2022-08-03T12:55:57.930Z,36.46
2022-08-03T12:57:15.633Z,36.98
2022-08-03T12:58:35.563Z,36.61
2022-08-03T12:59:53.265Z,36.70
2022-08-03T13:00:57.967Z,36.85
2022-08-03T13:02:04.329Z,36.88
2022-08-03T13:03:38.892Z,36.37
2022-08-03T13:04:38.202Z,36.38
2022-08-03T13:05:45.936Z,36.08
2022-08-03T13:07:02.755Z,36.53
2022-08-03T13:08:23.125Z,36.14
2022-08-03T13:09:29.005Z,35.97
2022-08-03T13:10:35.530Z,35.79
2022-08-03T13:11:55.507Z,36.00
2022-08-03T13:13:03.868Z,36.19
2022-08-03T13:14:07.950Z,35.91
2022-08-03T13:15:11.893Z,36.20
2022-08-03T13:16:19.296Z,36.39
2022-08-03T13:17:24.103Z,36.15
2022-08-03T13:18:28.250Z,36.07
2022-08-03T13:19:34.758Z,35.96
2022-08-03T13:20:39.336Z,35.92
2022-08-03T13:21:53.523Z,36.41
2022-08-03T13:23:15.389Z,36.59
2022-08-03T13:24:26.535Z,35.72
2022-08-03T13:25:31.264Z,35.81
2022-08-03T13:26:35.505Z,35.75
2022-08-03T13:28:13.911Z,35.87
2022-08-03T13:29:04.655Z,36.36
2022-08-03T13:30:10.577Z,35.90
2022-08-03T13:31:14.651Z,36.16
2022-08-03T13:32:18.783Z,36.10
2022-08-03T13:33:22.996Z,36.70
2022-08-03T13:34:27.099Z,36.79
2022-08-03T13:35:30.973Z,36.67
2022-08-03T13:36:59.162Z,36.59
2022-08-03T13:37:59.911Z,37.10
2022-08-03T13:39:04.307Z,37.10
2022-08-03T13:40:13.298Z,36.78
2022-08-03T13:41:18.746Z,36.58
2022-08-03T13:42:38.817Z,36.89
2022-08-03T13:43:43.431Z,36.63
2022-08-03T13:44:47.383Z,36.64
2022-08-03T13:45:54.983Z,36.57
2022-08-03T13:47:01.999Z,36.29
2022-08-03T13:48:06.824Z,36.34
2022-08-03T13:49:10.732Z,36.42
2022-08-03T13:50:15.926Z,36.55
2022-08-03T13:51:22.602Z,36.54
2022-08-03T13:52:27.226Z,36.63
2022-08-03T13:53:31.727Z,36.50
2022-08-03T13:54:36.561Z,36.64
2022-08-03T13:55:40.693Z,36.72
2022-08-03T13:56:50.285Z,37.22
2022-08-03T13:58:03.563Z,37.23
2022-08-03T13:59:11.382Z,37.45
2022-08-03T14:00:27.058Z,37.66
2022-08-03T14:01:54.252Z,36.94
2022-08-03T14:03:10.844Z,37.19
2022-08-03T14:04:22.110Z,37.18
2022-08-03T14:05:26.837Z,37.21
2022-08-03T14:06:31.697Z,36.77
2022-08-03T14:07:35.794Z,37.09
2022-08-03T14:08:40.025Z,36.69
2022-08-03T14:09:44.152Z,36.33
2022-08-03T14:10:48.319Z,36.65
2022-08-03T14:12:07.741Z,36.67
2022-08-03T14:13:17.753Z,37.08
2022-08-03T14:14:22.460Z,36.29
2022-08-03T14:15:26.958Z,36.69
2022-08-03T14:16:31.159Z,36.62
2022-08-03T14:17:42.054Z,36.88
2022-08-03T14:18:53.505Z,35.92
2022-08-03T14:19:57.404Z,36.34
2022-08-03T14:21:06.318Z,36.69
2022-08-03T14:22:10.941Z,35.68
2022-08-03T14:23:16.052Z,35.62
2022-08-03T14:24:19.954Z,35.83
2022-08-03T14:25:24.079Z,35.91
2022-08-03T14:26:28.164Z,36.19
2022-08-03T14:27:32.508Z,36.50
2022-08-03T14:28:37.069Z,36.08
2022-08-03T14:29:42.725Z,36.33
2022-08-03T14:30:48.066Z,36.07
2022-08-03T14:32:11.016Z,36.12
2022-08-03T14:33:16.556Z,36.21
2022-08-03T14:34:20.839Z,36.82
2022-08-03T14:35:25.516Z,36.63
2022-08-03T14:36:29.773Z,36.55
2022-08-03T14:37:34.085Z,37.13
2022-08-03T14:38:38.105Z,37.18
2022-08-03T14:41:06.365Z,36.69
2022-08-03T14:42:17.111Z,37.00
2022-08-03T14:43:21.789Z,36.86
2022-08-03T14:44:25.870Z,37.02
2022-08-03T14:45:30.242Z,37.20
2022-08-03T14:46:34.338Z,37.16
2022-08-03T14:50:27.763Z,37.49
2022-08-03T14:50:35.758Z,36.66
2022-08-03T14:50:42.072Z,37.25
2022-08-03T14:51:51.671Z,37.09
2022-08-03T14:52:58.446Z,37.37
2022-08-03T14:54:02.758Z,37.24
2022-08-03T14:55:07.177Z,37.61
2022-08-03T14:56:11.721Z,37.57
2022-08-03T14:57:15.892Z,38.03